createdAt,value
2023-05-20T00:00:25.413Z,0.50
2023-05-20T00:01:25.467Z,0.50
2023-05-20T00:02:25.519Z,0.50
2023-05-20T00:03:26.245Z,0.44
2023-05-20T00:04:25.597Z,0.40
2023-05-20T00:05:26.039Z,0.39
2023-05-20T00:06:26.105Z,0.40
2023-05-20T00:07:26.074Z,0.43
2023-05-20T00:08:26.081Z,0.48
2023-05-20T00:09:26.063Z,0.50
2023-05-20T00:10:26.076Z,0.50
2023-05-20T00:11:26.106Z,0.50
2023-05-20T00:12:26.084Z,0.50
2023-05-20T00:13:26.109Z,0.50
2023-05-20T00:14:26.080Z,0.50
2023-05-20T00:15:26.072Z,0.50
2023-05-20T00:16:26.131Z,0.51
2023-05-20T00:17:26.106Z,0.50
2023-05-20T00:18:26.090Z,0.50
2023-05-20T00:19:26.146Z,0.50
2023-05-20T00:20:26.148Z,0.50
2023-05-20T00:21:26.134Z,0.51
2023-05-20T00:22:26.152Z,0.51
2023-05-20T00:23:26.192Z,0.50
2023-05-20T00:24:26.215Z,0.51
2023-05-20T00:25:26.234Z,0.51
2023-05-20T00:26:26.249Z,0.50
2023-05-20T00:27:26.323Z,0.51
2023-05-20T00:28:26.326Z,0.52
2023-05-20T00:29:26.348Z,0.51
2023-05-20T00:30:26.339Z,0.50
2023-05-20T00:31:26.373Z,0.50
2023-05-20T00:32:26.579Z,0.51
2023-05-20T00:33:26.362Z,0.50
2023-05-20T00:34:26.377Z,0.52
2023-05-20T00:35:26.390Z,0.51
2023-05-20T00:36:26.453Z,0.51
2023-05-20T00:37:26.427Z,0.51
2023-05-20T00:38:26.426Z,0.50
2023-05-20T00:39:26.455Z,0.50
2023-05-20T00:40:26.439Z,0.50
2023-05-20T00:41:26.462Z,0.50
2023-05-20T00:42:26.454Z,0.51
2023-05-20T00:43:26.460Z,0.50
2023-05-20T00:44:26.458Z,0.51
2023-05-20T00:45:26.500Z,0.50
2023-05-20T00:46:26.566Z,0.51
2023-05-20T00:47:26.531Z,0.51
2023-05-20T00:48:26.520Z,0.51
2023-05-20T00:49:26.521Z,0.51
2023-05-20T00:50:26.507Z,0.50
2023-05-20T00:51:26.513Z,0.51
2023-05-20T00:52:26.518Z,0.50
2023-05-20T00:53:26.526Z,0.51
2023-05-20T00:54:26.516Z,0.50
2023-05-20T00:55:26.535Z,0.51
2023-05-20T00:56:26.533Z,0.51
2023-05-20T00:57:26.513Z,0.51
2023-05-20T00:58:26.511Z,0.51
2023-05-20T00:59:26.506Z,0.52
2023-05-20T01:00:26.520Z,0.52
2023-05-20T01:01:26.609Z,0.52
2023-05-20T01:02:26.603Z,0.51
2023-05-20T01:03:26.644Z,0.50
2023-05-20T01:04:26.541Z,0.52
2023-05-20T01:05:26.493Z,0.51
2023-05-20T01:06:26.494Z,0.51
2023-05-20T01:07:26.494Z,0.51
2023-05-20T01:08:26.506Z,0.51
2023-05-20T01:09:26.492Z,0.51
2023-05-20T01:10:26.514Z,0.51
2023-05-20T01:11:26.492Z,0.50
2023-05-20T01:12:26.486Z,0.51
2023-05-20T01:13:26.483Z,0.50
2023-05-20T01:14:26.474Z,0.50
2023-05-20T01:15:26.483Z,0.51
2023-05-20T01:16:26.508Z,0.51
2023-05-20T01:17:26.533Z,0.51
2023-05-20T01:18:26.474Z,0.50
2023-05-20T01:19:26.510Z,0.51
2023-05-20T01:20:26.455Z,0.51
2023-05-20T01:21:26.456Z,0.51
2023-05-20T01:22:26.452Z,0.51
2023-05-20T01:23:26.458Z,0.51
2023-05-20T01:24:26.447Z,0.51
2023-05-20T01:25:26.476Z,0.50
2023-05-20T01:26:26.448Z,0.51
2023-05-20T01:27:26.461Z,0.51
2023-05-20T01:28:26.454Z,0.52
2023-05-20T01:29:26.489Z,0.52
2023-05-20T01:30:26.440Z,0.51
2023-05-20T01:31:26.495Z,0.51
2023-05-20T01:32:26.456Z,0.51
2023-05-20T01:33:26.481Z,0.51
2023-05-20T01:34:26.449Z,0.51
2023-05-20T01:35:26.447Z,0.51
2023-05-20T01:36:26.449Z,0.51
2023-05-20T01:37:26.452Z,0.52
2023-05-20T01:38:26.464Z,0.51
2023-05-20T01:39:26.455Z,0.52
2023-05-20T01:40:26.468Z,0.51
2023-05-20T01:41:26.458Z,0.51
2023-05-20T01:42:26.470Z,0.51
2023-05-20T01:43:26.461Z,0.51
2023-05-20T01:44:26.460Z,0.50
2023-05-20T01:45:26.457Z,0.51
2023-05-20T01:46:26.492Z,0.51
2023-05-20T01:47:26.497Z,0.50
2023-05-20T01:48:26.471Z,0.52
2023-05-20T01:49:26.497Z,0.51
2023-05-20T01:50:26.463Z,0.51
2023-05-20T01:51:26.464Z,0.52
2023-05-20T01:52:26.459Z,0.51
2023-05-20T01:53:26.463Z,0.50
2023-05-20T01:54:26.468Z,0.51
2023-05-20T01:55:26.468Z,0.51
2023-05-20T01:56:26.466Z,0.51
2023-05-20T01:57:26.476Z,0.51
2023-05-20T01:58:26.462Z,0.52
2023-05-20T01:59:26.460Z,0.51
2023-05-20T02:00:26.461Z,0.51
2023-05-20T02:01:26.522Z,0.52
2023-05-20T02:02:26.484Z,0.51
2023-05-20T02:03:26.517Z,0.51
2023-05-20T02:04:26.450Z,0.51
2023-05-20T02:05:26.483Z,0.50
2023-05-20T02:06:26.472Z,0.50
2023-05-20T02:07:26.475Z,0.52
2023-05-20T02:08:26.497Z,0.50
2023-05-20T02:09:26.492Z,0.51
2023-05-20T02:10:26.511Z,0.51
2023-05-20T02:11:26.518Z,0.50
2023-05-20T02:12:26.527Z,0.52
2023-05-20T02:13:26.546Z,0.50
2023-05-20T02:14:26.553Z,0.51
2023-05-20T02:15:26.574Z,0.52
2023-05-20T02:16:26.622Z,0.51
2023-05-20T02:17:26.618Z,0.51
2023-05-20T02:18:26.727Z,0.51
2023-05-20T02:19:26.738Z,0.50
2023-05-20T02:20:26.694Z,0.51
2023-05-20T02:21:26.759Z,0.51
2023-05-20T02:22:26.792Z,0.51
2023-05-20T02:23:26.814Z,0.51
2023-05-20T02:24:26.836Z,0.51
2023-05-20T02:25:26.860Z,0.51
2023-05-20T02:26:26.877Z,0.51
2023-05-20T02:27:26.890Z,0.51
2023-05-20T02:28:26.891Z,0.52
2023-05-20T02:29:26.901Z,0.50
2023-05-20T02:30:26.921Z,0.52
2023-05-20T02:31:26.939Z,0.51
2023-05-20T02:32:26.962Z,0.51
2023-05-20T02:33:27.007Z,0.51
2023-05-20T02:34:27.051Z,0.51
2023-05-20T02:35:27.088Z,0.51
2023-05-20T02:36:27.099Z,0.51
2023-05-20T02:37:27.165Z,0.51
2023-05-20T02:38:27.209Z,0.52
2023-05-20T02:39:27.251Z,0.51
2023-05-20T02:40:27.301Z,0.52
2023-05-20T02:41:27.383Z,0.51
2023-05-20T02:42:27.402Z,0.52
2023-05-20T02:43:27.483Z,0.51
2023-05-20T02:44:27.486Z,0.52
2023-05-20T02:45:27.540Z,0.51
2023-05-20T02:46:27.645Z,0.51
2023-05-20T02:47:27.646Z,0.51
2023-05-20T02:48:27.663Z,0.52
2023-05-20T02:49:27.737Z,0.51
2023-05-20T02:50:27.751Z,0.52
2023-05-20T02:51:27.796Z,0.52
2023-05-20T02:52:27.848Z,0.51
2023-05-20T02:53:27.924Z,0.51
2023-05-20T02:54:27.964Z,0.52
2023-05-20T02:55:28.010Z,0.51
2023-05-20T02:56:28.074Z,0.51
2023-05-20T02:57:28.115Z,0.51
2023-05-20T02:58:28.182Z,0.51
2023-05-20T02:59:28.240Z,0.51
2023-05-20T03:00:28.307Z,0.51
2023-05-20T03:01:28.401Z,0.52
2023-05-20T03:02:28.464Z,0.51
2023-05-20T03:03:28.497Z,0.53
2023-05-20T03:04:28.608Z,0.52
2023-05-20T03:05:28.605Z,0.51
2023-05-20T03:06:28.651Z,0.51
2023-05-20T03:07:28.690Z,0.51
2023-05-20T03:08:28.741Z,0.50
2023-05-20T03:09:28.802Z,0.51
2023-05-20T03:10:28.825Z,0.51
2023-05-20T03:11:28.887Z,0.52
2023-05-20T03:12:28.933Z,0.51
2023-05-20T03:13:28.997Z,0.51
2023-05-20T03:14:29.069Z,0.51
2023-05-20T03:15:29.142Z,0.51
2023-05-20T03:16:29.254Z,0.50
2023-05-20T03:17:29.276Z,0.50
2023-05-20T03:18:29.303Z,0.52
2023-05-20T03:19:29.438Z,0.51
2023-05-20T03:20:29.424Z,0.52
2023-05-20T03:21:29.492Z,0.50
2023-05-20T03:22:29.599Z,0.52
2023-05-20T03:23:29.605Z,0.51
2023-05-20T03:24:29.660Z,0.51
2023-05-20T03:25:29.753Z,0.51
2023-05-20T03:26:29.783Z,0.51
2023-05-20T03:27:29.833Z,0.51
2023-05-20T03:28:29.892Z,0.51
2023-05-20T03:29:29.953Z,0.52
2023-05-20T03:30:30.010Z,0.51
2023-05-20T03:31:30.187Z,0.51
2023-05-20T03:32:30.201Z,0.51
2023-05-20T03:33:30.202Z,0.50
2023-05-20T03:34:30.277Z,0.52
2023-05-20T03:35:30.331Z,0.51
2023-05-20T03:36:30.384Z,0.51
2023-05-20T03:37:30.468Z,0.51
2023-05-20T03:38:30.533Z,0.52
2023-05-20T03:39:30.584Z,0.51
2023-05-20T03:40:30.653Z,0.52
2023-05-20T03:41:30.733Z,0.51
2023-05-20T03:42:31.145Z,0.51
2023-05-20T03:43:31.187Z,0.51
2023-05-20T03:44:31.187Z,0.51
2023-05-20T03:45:31.190Z,0.52
2023-05-20T03:46:31.249Z,0.51
2023-05-20T03:47:31.223Z,0.51
2023-05-20T03:48:31.243Z,0.51
2023-05-20T03:49:31.188Z,0.52
2023-05-20T03:50:31.251Z,0.51
2023-05-20T03:51:31.319Z,0.51
2023-05-20T03:52:31.377Z,0.51
2023-05-20T03:53:31.436Z,0.50
2023-05-20T03:54:31.525Z,0.51
2023-05-20T03:55:31.650Z,0.50
2023-05-20T03:56:31.653Z,0.51
2023-05-20T03:57:31.701Z,0.51
2023-05-20T03:58:31.740Z,0.52
2023-05-20T03:59:31.834Z,0.52
2023-05-20T04:00:31.897Z,0.51
2023-05-20T04:01:31.946Z,0.51
2023-05-20T04:02:32.116Z,0.52
2023-05-20T04:03:32.159Z,0.51
2023-05-20T04:04:32.113Z,0.51
2023-05-20T04:05:32.644Z,0.52
2023-05-20T04:06:32.525Z,0.51
2023-05-20T04:07:32.534Z,0.52
2023-05-20T04:08:32.526Z,0.51
2023-05-20T04:09:32.525Z,0.51
2023-05-20T04:10:32.522Z,0.53
2023-05-20T04:11:32.566Z,0.51
2023-05-20T04:12:32.621Z,0.51
2023-05-20T04:13:32.676Z,0.51
2023-05-20T04:14:33.909Z,0.51
2023-05-20T04:15:33.029Z,0.52
2023-05-20T04:16:32.844Z,0.53
2023-05-20T04:17:32.937Z,0.52
2023-05-20T04:18:32.952Z,0.52
2023-05-20T04:19:33.016Z,0.53
2023-05-20T04:20:33.064Z,0.52
2023-05-20T04:21:33.125Z,0.52
2023-05-20T04:22:33.190Z,0.51
2023-05-20T04:23:33.253Z,0.52
2023-05-20T04:24:33.339Z,0.52
2023-05-20T04:25:33.377Z,0.52
2023-05-20T04:26:33.436Z,0.52
2023-05-20T04:27:33.496Z,0.52
2023-05-20T04:28:33.650Z,0.52
2023-05-20T04:29:33.635Z,0.52
2023-05-20T04:30:33.669Z,0.52
2023-05-20T04:31:33.755Z,0.52
2023-05-20T04:32:33.874Z,0.52
2023-05-20T04:33:33.835Z,0.51
2023-05-20T04:34:33.892Z,0.50
2023-05-20T04:35:34.086Z,0.52
2023-05-20T04:36:34.013Z,0.51
2023-05-20T04:37:34.081Z,0.52
2023-05-20T04:38:34.144Z,0.52
2023-05-20T04:39:34.189Z,0.52
2023-05-20T04:40:34.243Z,0.52
2023-05-20T04:41:34.299Z,0.52
2023-05-20T04:42:34.391Z,0.52
2023-05-20T04:43:34.433Z,0.53
2023-05-20T04:44:34.497Z,0.52
2023-05-20T04:45:34.777Z,0.52
2023-05-20T04:46:34.714Z,0.51
2023-05-20T04:47:34.681Z,0.51
2023-05-20T04:48:34.718Z,0.52
2023-05-20T04:49:34.780Z,0.52
2023-05-20T04:50:34.835Z,0.52
2023-05-20T04:51:34.897Z,0.52
2023-05-20T04:52:34.963Z,0.52
2023-05-20T04:53:35.028Z,0.52
2023-05-20T04:54:35.077Z,0.52
2023-05-20T04:55:35.289Z,0.51
2023-05-20T04:56:35.210Z,0.51
2023-05-20T04:57:35.260Z,0.52
2023-05-20T04:58:35.674Z,0.52
2023-05-20T04:59:35.384Z,0.50
2023-05-20T05:00:35.470Z,0.51
2023-05-20T05:01:35.556Z,0.52
2023-05-20T05:02:35.606Z,0.52
2023-05-20T05:03:36.756Z,0.52
2023-05-20T05:04:35.712Z,0.52
2023-05-20T05:05:35.715Z,0.52
2023-05-20T05:06:35.775Z,0.53
2023-05-20T05:07:35.853Z,0.53
2023-05-20T05:08:35.900Z,0.52
2023-05-20T05:09:35.941Z,0.53
2023-05-20T05:10:36.003Z,0.52
2023-05-20T05:11:36.071Z,0.53
2023-05-20T05:12:36.114Z,0.51
2023-05-20T05:13:36.206Z,0.53
2023-05-20T05:14:36.233Z,0.53
2023-05-20T05:15:36.564Z,0.53
2023-05-20T05:16:36.374Z,0.52
2023-05-20T05:17:36.463Z,0.52
2023-05-20T05:18:36.460Z,0.53
2023-05-20T05:19:36.513Z,0.52
2023-05-20T05:20:36.564Z,0.52
2023-05-20T05:21:36.646Z,0.52
2023-05-20T05:22:36.676Z,0.52
2023-05-20T05:23:36.736Z,0.53
2023-05-20T05:24:36.778Z,0.52
2023-05-20T05:25:36.831Z,0.51
2023-05-20T05:26:36.892Z,0.52
2023-05-20T05:27:36.949Z,0.51
2023-05-20T05:28:37.004Z,0.52
2023-05-20T05:29:37.060Z,0.52
2023-05-20T05:30:37.110Z,0.52
2023-05-20T05:31:37.165Z,0.52
2023-05-20T05:32:37.712Z,0.52
2023-05-20T05:33:37.644Z,0.51
2023-05-20T05:34:37.621Z,0.52
2023-05-20T05:35:37.607Z,0.52
2023-05-20T05:36:37.597Z,0.52
2023-05-20T05:37:37.594Z,0.52
2023-05-20T05:38:37.607Z,0.52
2023-05-20T05:39:37.703Z,0.53
2023-05-20T05:40:37.659Z,0.52
2023-05-20T05:41:37.711Z,0.51
2023-05-20T05:42:37.776Z,0.51
2023-05-20T05:43:37.822Z,0.51
2023-05-20T05:44:37.879Z,0.52
2023-05-20T05:45:37.937Z,0.53
2023-05-20T05:46:38.050Z,0.52
2023-05-20T05:47:38.060Z,0.52
2023-05-20T05:48:38.082Z,0.51
2023-05-20T05:49:38.522Z,0.52
2023-05-20T05:50:38.544Z,0.52
2023-05-20T05:51:39.221Z,0.53
2023-05-20T05:52:38.531Z,0.51
2023-05-20T05:53:38.528Z,0.52
2023-05-20T05:54:38.534Z,0.51
2023-05-20T05:55:38.536Z,0.52
2023-05-20T05:56:38.535Z,0.53
2023-05-20T05:57:38.548Z,0.51
2023-05-20T05:58:38.593Z,0.52
2023-05-20T05:59:38.650Z,0.51
2023-05-20T06:00:38.716Z,0.51
2023-05-20T06:01:38.736Z,0.52
2023-05-20T06:02:38.837Z,0.52
2023-05-20T06:03:38.890Z,0.51
2023-05-20T06:04:38.926Z,0.51
2023-05-20T06:05:38.958Z,0.51
2023-05-20T06:06:38.977Z,0.51
2023-05-20T06:07:39.034Z,0.51
2023-05-20T06:08:39.084Z,0.52
2023-05-20T06:09:39.126Z,0.52
2023-05-20T06:10:39.177Z,0.52
2023-05-20T06:11:39.226Z,0.53
2023-05-20T06:12:39.291Z,0.52
2023-05-20T06:13:39.317Z,0.53
2023-05-20T06:14:39.365Z,0.52
2023-05-20T06:15:39.412Z,0.52
2023-05-20T06:16:39.516Z,0.53
2023-05-20T06:17:39.539Z,0.51
2023-05-20T06:18:39.672Z,0.52
2023-05-20T06:19:39.681Z,0.53
2023-05-20T06:20:39.644Z,0.53
2023-05-20T06:21:39.716Z,0.52
2023-05-20T06:22:39.736Z,0.53
2023-05-20T06:23:39.785Z,0.52
2023-05-20T06:24:39.850Z,0.52
2023-05-20T06:25:39.890Z,0.53
2023-05-20T06:26:39.935Z,0.51
2023-05-20T06:27:39.980Z,0.52
2023-05-20T06:28:40.032Z,0.52
2023-05-20T06:29:41.827Z,0.53
2023-05-20T06:30:40.083Z,0.53
2023-05-20T06:31:40.067Z,0.53
2023-05-20T06:32:40.123Z,0.53
2023-05-20T06:33:40.052Z,0.52
2023-05-20T06:34:40.046Z,0.53
2023-05-20T06:35:40.037Z,0.53
2023-05-20T06:36:40.034Z,0.53
2023-05-20T06:37:40.105Z,0.53
2023-05-20T06:38:40.039Z,0.53
2023-05-20T06:39:40.008Z,0.53
2023-05-20T06:40:40.008Z,0.53
2023-05-20T06:41:40.003Z,0.53
2023-05-20T06:42:39.997Z,0.52
2023-05-20T06:43:39.976Z,0.53
2023-05-20T06:44:39.970Z,0.54
2023-05-20T06:45:39.955Z,0.53
2023-05-20T06:46:39.970Z,0.53
2023-05-20T06:47:40.034Z,0.53
2023-05-20T06:48:40.059Z,0.53
2023-05-20T06:49:40.106Z,0.53
2023-05-20T06:50:40.158Z,0.53
2023-05-20T06:51:40.219Z,0.54
2023-05-20T06:52:40.257Z,0.53
2023-05-20T06:53:40.350Z,0.52
2023-05-20T06:54:40.373Z,0.53
2023-05-20T06:55:40.416Z,0.54
2023-05-20T06:56:40.480Z,0.52
2023-05-20T06:57:40.519Z,0.53
2023-05-20T06:58:40.572Z,0.52
2023-05-20T06:59:40.612Z,0.52
2023-05-20T07:00:40.655Z,0.52
2023-05-20T07:01:40.725Z,0.53
2023-05-20T07:02:40.840Z,0.53
2023-05-20T07:03:40.835Z,0.52
2023-05-20T07:04:40.844Z,0.54
2023-05-20T07:05:40.912Z,0.53
2023-05-20T07:06:40.949Z,0.53
2023-05-20T07:07:40.986Z,0.53
2023-05-20T07:08:41.046Z,0.53
2023-05-20T07:09:41.097Z,0.53
2023-05-20T07:10:41.134Z,0.52
2023-05-20T07:11:41.165Z,0.52
2023-05-20T07:12:41.213Z,0.52
2023-05-20T07:13:41.257Z,0.52
2023-05-20T07:14:41.297Z,0.53
2023-05-20T07:15:41.380Z,0.53
2023-05-20T07:16:41.453Z,0.52
2023-05-20T07:17:41.500Z,0.53
2023-05-20T07:18:41.547Z,0.52
2023-05-20T07:19:41.517Z,0.53
2023-05-20T07:20:41.567Z,0.53
2023-05-20T07:21:41.610Z,0.53
2023-05-20T07:22:41.654Z,0.51
2023-05-20T07:23:41.704Z,0.53
2023-05-20T07:24:41.739Z,0.52
2023-05-20T07:25:41.803Z,0.52
2023-05-20T07:26:41.829Z,0.52
2023-05-20T07:27:41.856Z,0.53
2023-05-20T07:28:41.899Z,0.52
2023-05-20T07:29:41.932Z,0.53
2023-05-20T07:30:41.977Z,0.53
2023-05-20T07:31:42.039Z,0.52
2023-05-20T07:32:42.098Z,0.53
2023-05-20T07:33:42.328Z,0.53
2023-05-20T07:34:42.134Z,0.52
2023-05-20T07:35:42.175Z,0.53
2023-05-20T07:36:42.213Z,0.52
2023-05-20T07:37:42.245Z,0.52
2023-05-20T07:38:47.257Z,0.52
2023-05-20T07:39:42.301Z,0.52
2023-05-20T07:40:42.297Z,0.52
2023-05-20T07:41:42.290Z,0.52
2023-05-20T07:42:42.254Z,0.53
2023-05-20T07:43:42.250Z,0.54
2023-05-20T07:44:42.236Z,0.54
2023-05-20T07:45:42.279Z,0.55
2023-05-20T07:46:42.304Z,0.54
2023-05-20T07:47:42.259Z,0.53
2023-05-20T07:48:42.255Z,0.53
2023-05-20T07:49:42.218Z,0.54
2023-05-20T07:50:42.198Z,0.54
2023-05-20T07:51:42.198Z,0.55
2023-05-20T07:52:55.411Z,0.54
2023-05-20T07:53:42.181Z,0.55
2023-05-20T07:54:42.172Z,0.55
2023-05-20T07:55:42.156Z,0.55
2023-05-20T07:56:42.147Z,0.55
2023-05-20T07:57:44.182Z,0.55
2023-05-20T07:58:42.138Z,0.54
2023-05-20T07:59:42.134Z,0.55
2023-05-20T08:00:42.128Z,0.55
2023-05-20T08:01:42.107Z,0.55
2023-05-20T08:02:42.206Z,0.55
2023-05-20T08:03:42.143Z,0.55
2023-05-20T08:04:42.125Z,0.55
2023-05-20T08:05:42.077Z,0.55
2023-05-20T08:06:42.065Z,0.55
2023-05-20T08:07:42.055Z,0.54
2023-05-20T08:08:42.050Z,0.54
2023-05-20T08:09:42.038Z,0.53
2023-05-20T08:10:42.037Z,0.55
2023-05-20T08:11:42.041Z,0.54
2023-05-20T08:12:42.016Z,0.55
2023-05-20T08:13:42.036Z,0.55
2023-05-20T08:14:42.005Z,0.56
2023-05-20T08:15:41.997Z,0.54
2023-05-20T08:16:42.069Z,0.54
2023-05-20T08:17:42.030Z,0.54
2023-05-20T08:18:42.066Z,0.55
2023-05-20T08:19:41.960Z,0.55
2023-05-20T08:20:41.961Z,0.54
2023-05-20T08:21:41.948Z,0.55
2023-05-20T08:22:41.959Z,0.54
2023-05-20T08:23:41.931Z,0.55
2023-05-20T08:24:41.935Z,0.54
2023-05-20T08:25:41.921Z,0.55
2023-05-20T08:26:41.911Z,0.54
2023-05-20T08:27:41.911Z,0.54
2023-05-20T08:28:41.902Z,0.54
2023-05-20T08:29:41.927Z,0.55
2023-05-20T08:30:41.906Z,0.55
2023-05-20T08:31:42.000Z,0.54
2023-05-20T08:32:41.961Z,0.55
2023-05-20T08:33:41.915Z,0.55
2023-05-20T08:34:41.941Z,0.54
2023-05-20T08:35:41.980Z,0.54
2023-05-20T08:36:42.018Z,0.55
2023-05-20T08:37:42.042Z,0.56
2023-05-20T08:38:42.073Z,0.56
2023-05-20T08:39:42.107Z,0.56
2023-05-20T08:40:42.133Z,0.56
2023-05-20T08:41:42.164Z,0.55
2023-05-20T08:42:42.197Z,0.55
2023-05-20T08:43:42.230Z,0.55
2023-05-20T08:44:42.256Z,0.55
2023-05-20T08:45:42.309Z,0.54
2023-05-20T08:46:42.337Z,0.55
2023-05-20T08:47:42.353Z,0.55
2023-05-20T08:48:42.402Z,0.55
2023-05-20T08:49:42.398Z,0.55
2023-05-20T08:50:42.452Z,0.54
2023-05-20T08:51:42.464Z,0.55
2023-05-20T08:52:42.500Z,0.54
2023-05-20T08:53:42.529Z,0.56
2023-05-20T08:54:42.557Z,0.55
2023-05-20T08:55:42.579Z,0.54
2023-05-20T08:56:42.600Z,0.54
2023-05-20T08:57:42.605Z,0.55
2023-05-20T08:58:42.621Z,0.55
2023-05-20T08:59:42.638Z,0.56
2023-05-20T09:00:42.653Z,0.55
2023-05-20T09:01:42.748Z,0.56
2023-05-20T09:02:42.792Z,0.55
2023-05-20T09:03:42.723Z,0.56
2023-05-20T09:04:42.790Z,0.55
2023-05-20T09:05:42.744Z,0.56
2023-05-20T09:06:42.760Z,0.56
2023-05-20T09:07:42.786Z,0.56
2023-05-20T09:08:42.801Z,0.54
2023-05-20T09:09:42.810Z,0.56
2023-05-20T09:10:42.817Z,0.55
2023-05-20T09:11:42.829Z,0.56
2023-05-20T09:12:42.840Z,0.57
2023-05-20T09:13:42.850Z,0.55
2023-05-20T09:14:42.869Z,0.55
2023-05-20T09:15:42.896Z,0.55
2023-05-20T09:16:43.027Z,0.55
2023-05-20T09:17:43.006Z,0.56
2023-05-20T09:18:42.975Z,0.55
2023-05-20T09:19:42.942Z,0.55
2023-05-20T09:20:42.958Z,0.55
2023-05-20T09:21:43.003Z,0.55
2023-05-20T09:22:42.994Z,0.55
2023-05-20T09:23:43.013Z,0.57
2023-05-20T09:24:43.029Z,0.57
2023-05-20T09:25:43.037Z,0.56
2023-05-20T09:26:43.073Z,0.56
2023-05-20T09:27:43.072Z,0.56
2023-05-20T09:28:43.099Z,0.56
2023-05-20T09:29:43.109Z,0.56
2023-05-20T09:30:45.270Z,0.56
2023-05-20T09:31:43.132Z,0.58
2023-05-20T09:32:43.118Z,0.57
2023-05-20T09:33:43.121Z,0.56
2023-05-20T09:34:43.107Z,0.57
2023-05-20T09:35:43.084Z,0.56
2023-05-20T09:36:43.077Z,0.56
2023-05-20T09:37:43.068Z,0.56
2023-05-20T09:38:43.091Z,0.56
2023-05-20T09:39:43.056Z,0.55
2023-05-20T09:40:43.057Z,0.56
2023-05-20T09:41:43.037Z,0.58
2023-05-20T09:42:43.025Z,0.57
2023-05-20T09:43:43.036Z,0.57
2023-05-20T09:44:43.015Z,0.56
2023-05-20T09:45:43.094Z,0.56
2023-05-20T09:46:43.004Z,0.56
2023-05-20T09:47:43.006Z,0.56
2023-05-20T09:48:42.983Z,0.57
2023-05-20T09:49:42.998Z,0.56
2023-05-20T09:50:42.964Z,0.56
2023-05-20T09:51:42.961Z,0.58
2023-05-20T09:52:42.954Z,0.57
2023-05-20T09:53:42.954Z,0.57
2023-05-20T09:54:42.948Z,0.57
2023-05-20T09:55:42.926Z,0.57
2023-05-20T09:56:42.921Z,0.56
2023-05-20T09:57:42.921Z,0.56
2023-05-20T09:58:42.914Z,0.57
2023-05-20T09:59:42.931Z,0.58
2023-05-20T10:00:42.902Z,0.56
2023-05-20T10:01:42.925Z,0.57
2023-05-20T10:02:42.972Z,0.57
2023-05-20T10:03:44.454Z,0.57
2023-05-20T10:04:43.091Z,0.57
2023-05-20T10:05:43.117Z,0.57
2023-05-20T10:06:43.110Z,0.56
2023-05-20T10:07:43.120Z,0.57
2023-05-20T10:08:43.143Z,0.57
2023-05-20T10:09:43.154Z,0.57
2023-05-20T10:10:43.170Z,0.56
2023-05-20T10:11:43.188Z,0.57
2023-05-20T10:12:43.200Z,0.56
2023-05-20T10:13:43.213Z,0.57
2023-05-20T10:14:43.586Z,0.57
2023-05-20T10:15:43.607Z,0.57
2023-05-20T10:16:43.624Z,0.58
2023-05-20T10:17:43.700Z,0.57
2023-05-20T10:18:43.746Z,0.58
2023-05-20T10:19:43.636Z,0.57
2023-05-20T10:20:43.630Z,0.57
2023-05-20T10:21:43.655Z,0.57
2023-05-20T10:22:43.626Z,0.57
2023-05-20T10:23:43.625Z,0.57
2023-05-20T10:24:43.644Z,0.57
2023-05-20T10:25:43.629Z,0.57
2023-05-20T10:26:43.636Z,0.57
2023-05-20T10:27:43.629Z,0.58
2023-05-20T10:28:43.637Z,0.57
2023-05-20T10:29:43.636Z,0.57
2023-05-20T10:30:44.516Z,0.58
2023-05-20T10:31:43.632Z,0.57
2023-05-20T10:32:43.713Z,0.57
2023-05-20T10:33:43.671Z,0.58
2023-05-20T10:34:43.621Z,0.58
2023-05-20T10:35:43.638Z,0.56
2023-05-20T10:36:43.628Z,0.57
2023-05-20T10:37:43.679Z,0.57
2023-05-20T10:38:43.631Z,0.56
2023-05-20T10:39:43.625Z,0.57
2023-05-20T10:40:43.626Z,0.57
2023-05-20T10:41:43.627Z,0.57
2023-05-20T10:42:43.629Z,0.57
2023-05-20T10:43:43.631Z,0.57
2023-05-20T10:44:43.638Z,0.56
2023-05-20T10:45:43.633Z,0.57
2023-05-20T10:47:43.786Z,0.56
2023-05-20T10:48:43.724Z,0.57
2023-05-20T10:49:43.642Z,0.57
2023-05-20T10:50:43.634Z,0.57
2023-05-20T10:51:43.631Z,0.58
2023-05-20T10:52:43.631Z,0.58
2023-05-20T10:53:43.662Z,0.59
2023-05-20T10:54:43.634Z,0.59
2023-05-20T10:55:43.630Z,0.58
2023-05-20T10:56:43.625Z,0.57
2023-05-20T10:57:43.626Z,0.58
2023-05-20T10:58:43.627Z,0.58
2023-05-20T10:59:43.640Z,0.57
2023-05-20T11:00:43.664Z,0.58
2023-05-20T11:01:43.690Z,0.58
2023-05-20T11:02:43.699Z,0.57
2023-05-20T11:03:43.669Z,0.57
2023-05-20T11:04:43.585Z,0.58
2023-05-20T11:05:43.583Z,0.57
2023-05-20T11:06:43.215Z,0.57
2023-05-20T11:07:43.209Z,0.58
2023-05-20T11:08:43.199Z,0.59
2023-05-20T11:09:43.222Z,0.57
2023-05-20T11:10:43.201Z,0.57
2023-05-20T11:11:43.206Z,0.58
2023-05-20T11:12:43.213Z,0.58
2023-05-20T11:13:43.177Z,0.57
2023-05-20T11:14:43.163Z,0.57
2023-05-20T11:15:43.165Z,0.57
2023-05-20T11:16:43.176Z,0.57
2023-05-20T11:17:43.195Z,0.57
2023-05-20T11:18:43.286Z,0.57
2023-05-20T11:19:43.134Z,0.57
2023-05-20T11:20:43.117Z,0.58
2023-05-20T11:21:43.122Z,0.58
2023-05-20T11:22:43.103Z,0.57
2023-05-20T11:23:43.095Z,0.57
2023-05-20T11:24:43.120Z,0.57
2023-05-20T11:25:43.117Z,0.57
2023-05-20T11:26:43.072Z,0.58
2023-05-20T11:27:43.070Z,0.57
2023-05-20T11:28:43.074Z,0.56
2023-05-20T11:29:43.108Z,0.57
2023-05-20T11:30:43.074Z,0.57
2023-05-20T11:31:43.074Z,0.57
2023-05-20T11:32:43.913Z,0.57
2023-05-20T11:33:43.022Z,0.58
2023-05-20T11:34:43.024Z,0.59
2023-05-20T11:35:43.009Z,0.57
2023-05-20T11:36:43.006Z,0.57
2023-05-20T11:37:42.995Z,0.56
2023-05-20T11:38:43.005Z,0.56
2023-05-20T11:39:42.980Z,0.58
2023-05-20T11:40:50.661Z,0.56
2023-05-20T11:41:42.995Z,0.57
2023-05-20T11:42:42.964Z,0.57
2023-05-20T11:43:43.006Z,0.57
2023-05-20T11:44:42.946Z,0.57
2023-05-20T11:45:42.947Z,0.57
2023-05-20T11:46:43.049Z,0.57
2023-05-20T11:47:42.965Z,0.57
2023-05-20T11:48:42.923Z,0.56
2023-05-20T11:49:42.904Z,0.57
2023-05-20T11:50:42.910Z,0.56
2023-05-20T11:51:42.893Z,0.57
2023-05-20T11:52:42.888Z,0.57
2023-05-20T11:53:42.900Z,0.57
2023-05-20T11:54:42.885Z,0.56
2023-05-20T11:55:42.868Z,0.57
2023-05-20T11:56:42.864Z,0.57
2023-05-20T11:57:42.874Z,0.57
2023-05-20T11:58:42.861Z,0.57
2023-05-20T11:59:42.856Z,0.57
2023-05-20T12:00:51.193Z,0.57
2023-05-20T12:01:42.853Z,0.57
2023-05-20T12:02:42.923Z,0.57
2023-05-20T12:03:42.993Z,0.57
2023-05-20T12:04:42.861Z,0.57
2023-05-20T12:05:42.791Z,0.58
2023-05-20T12:06:42.792Z,0.58
2023-05-20T12:07:42.782Z,0.58
2023-05-20T12:08:42.794Z,0.57
2023-05-20T12:09:42.768Z,0.58
2023-05-20T12:10:42.756Z,0.58
2023-05-20T12:11:42.765Z,0.58
2023-05-20T12:12:42.754Z,0.57
2023-05-20T12:13:42.760Z,0.57
2023-05-20T12:14:42.730Z,0.58
2023-05-20T12:15:42.798Z,0.58
2023-05-20T12:16:42.744Z,0.57
2023-05-20T12:17:42.751Z,0.57
2023-05-20T12:18:42.735Z,0.57
2023-05-20T12:19:42.724Z,0.58
2023-05-20T12:20:42.693Z,0.57
2023-05-20T12:21:42.690Z,0.58
2023-05-20T12:22:42.680Z,0.57
2023-05-20T12:23:42.665Z,0.57
2023-05-20T12:24:42.666Z,0.57
2023-05-20T12:25:42.671Z,0.57
2023-05-20T12:26:42.655Z,0.57
2023-05-20T12:27:42.642Z,0.57
2023-05-20T12:28:42.640Z,0.57
2023-05-20T12:29:42.659Z,0.57
2023-05-20T12:30:42.627Z,0.57
2023-05-20T12:31:42.688Z,0.57
2023-05-20T12:32:42.669Z,0.57
2023-05-20T12:33:42.597Z,0.57
2023-05-20T12:34:42.608Z,0.57
2023-05-20T12:35:42.594Z,0.57
2023-05-20T12:36:42.574Z,0.58
2023-05-20T12:37:42.577Z,0.57
2023-05-20T12:38:42.563Z,0.56
2023-05-20T12:39:42.555Z,0.57
2023-05-20T12:40:42.553Z,0.57
2023-05-20T12:41:42.549Z,0.57
2023-05-20T12:42:42.535Z,0.57
2023-05-20T12:43:42.548Z,0.56
2023-05-20T12:44:42.528Z,0.57
2023-05-20T12:45:42.562Z,0.57
2023-05-20T12:46:42.545Z,0.57
2023-05-20T12:47:42.550Z,0.57
2023-05-20T12:48:42.811Z,0.57
2023-05-20T12:49:42.500Z,0.57
2023-05-20T12:50:42.483Z,0.57
2023-05-20T12:51:42.482Z,0.57
2023-05-20T12:52:42.463Z,0.57
2023-05-20T12:53:42.456Z,0.57
2023-05-20T12:54:42.454Z,0.57
2023-05-20T12:55:42.446Z,0.57
2023-05-20T12:56:42.457Z,0.60
2023-05-20T12:57:42.435Z,0.58
2023-05-20T12:58:42.422Z,0.57
2023-05-20T12:59:42.421Z,0.58
2023-05-20T13:00:42.464Z,0.58
2023-05-20T13:01:42.477Z,0.58
2023-05-20T13:02:42.607Z,0.58
2023-05-20T13:03:42.449Z,0.58
2023-05-20T13:04:42.380Z,0.58
2023-05-20T13:05:42.393Z,0.58
2023-05-20T13:06:42.369Z,0.58
2023-05-20T13:07:42.356Z,0.57
2023-05-20T13:08:42.355Z,0.57
2023-05-20T13:09:42.352Z,0.58
2023-05-20T13:10:42.341Z,0.58
2023-05-20T13:11:42.331Z,0.58
2023-05-20T13:12:42.358Z,0.58
2023-05-20T13:13:42.350Z,0.58
2023-05-20T13:14:42.376Z,0.59
2023-05-20T13:15:43.641Z,0.58
2023-05-20T13:16:42.440Z,0.58
2023-05-20T13:17:42.553Z,0.57
2023-05-20T13:18:42.654Z,0.58
2023-05-20T13:19:42.529Z,0.57